sensor_id;sensor_type;location;lat;lon;timestamp;P1;durP1;ratioP1;P2;durP2;ratioP2
13090;SDS011;6611;52.604;13.438;2023-08-17T00:02:20;2.83;;;2.63;;
13090;SDS011;6611;52.604;13.438;2023-08-17T00:07:21;2.07;;;1.80;;
13090;SDS011;6611;52.604;13.438;2023-08-17T00:12:24;3.43;;;2.10;;
13090;SDS011;6611;52.604;13.438;2023-08-17T00:17:26;3.30;;;2.10;;
13090;SDS011;6611;52.604;13.438;2023-08-17T00:22:28;2.60;;;2.40;;
13090;SDS011;6611;52.604;13.438;2023-08-17T00:27:31;4.17;;;2.40;;
13090;SDS011;6611;52.604;13.438;2023-08-17T00:32:33;2.23;;;2.03;;
13090;SDS011;6611;52.604;13.438;2023-08-17T00:37:34;4.03;;;2.23;;
13090;SDS011;6611;52.604;13.438;2023-08-17T00:42:37;2.93;;;2.43;;
13090;SDS011;6611;52.604;13.438;2023-08-17T00:47:39;2.70;;;2.30;;
13090;SDS011;6611;52.604;13.438;2023-08-17T00:52:41;3.33;;;2.70;;
13090;SDS011;6611;52.604;13.438;2023-08-17T00:57:44;5.30;;;2.37;;
13090;SDS011;6611;52.604;13.438;2023-08-17T01:02:46;4.20;;;2.50;;
13090;SDS011;6611;52.604;13.438;2023-08-17T01:07:48;3.63;;;2.40;;
13090;SDS011;6611;52.604;13.438;2023-08-17T01:12:57;3.43;;;2.70;;
13090;SDS011;6611;52.604;13.438;2023-08-17T01:18:09;4.07;;;2.67;;
13090;SDS011;6611;52.604;13.438;2023-08-17T01:23:19;6.23;;;3.00;;
13090;SDS011;6611;52.604;13.438;2023-08-17T01:28:20;5.20;;;2.47;;
13090;SDS011;6611;52.604;13.438;2023-08-17T01:33:24;3.23;;;2.80;;
13090;SDS011;6611;52.604;13.438;2023-08-17T01:38:31;3.33;;;2.90;;
13090;SDS011;6611;52.604;13.438;2023-08-17T01:43:35;3.47;;;2.40;;
13090;SDS011;6611;52.604;13.438;2023-08-17T01:48:37;4.77;;;2.50;;
13090;SDS011;6611;52.604;13.438;2023-08-17T01:53:40;3.47;;;2.20;;
13090;SDS011;6611;52.604;13.438;2023-08-17T01:58:41;4.13;;;2.70;;
13090;SDS011;6611;52.604;13.438;2023-08-17T02:03:43;4.30;;;2.40;;
13090;SDS011;6611;52.604;13.438;2023-08-17T02:08:46;3.53;;;2.20;;
13090;SDS011;6611;52.604;13.438;2023-08-17T02:13:47;4.17;;;2.53;;
13090;SDS011;6611;52.604;13.438;2023-08-17T02:18:49;2.40;;;2.20;;
13090;SDS011;6611;52.604;13.438;2023-08-17T02:23:52;3.43;;;2.53;;
13090;SDS011;6611;52.604;13.438;2023-08-17T02:28:54;7.37;;;2.30;;
13090;SDS011;6611;52.604;13.438;2023-08-17T02:33:55;2.47;;;1.90;;
13090;SDS011;6611;52.604;13.438;2023-08-17T02:39:02;3.53;;;1.97;;
13090;SDS011;6611;52.604;13.438;2023-08-17T02:44:04;2.97;;;1.80;;
13090;SDS011;6611;52.604;13.438;2023-08-17T02:49:06;3.10;;;2.30;;
13090;SDS011;6611;52.604;13.438;2023-08-17T02:54:09;3.50;;;2.07;;
13090;SDS011;6611;52.604;13.438;2023-08-17T02:59:10;2.83;;;2.00;;
13090;SDS011;6611;52.604;13.438;2023-08-17T03:04:12;3.60;;;1.90;;
13090;SDS011;6611;52.604;13.438;2023-08-17T03:09:15;5.47;;;2.17;;
13090;SDS011;6611;52.604;13.438;2023-08-17T03:14:17;3.70;;;2.20;;
13090;SDS011;6611;52.604;13.438;2023-08-17T03:19:18;3.73;;;1.90;;
13090;SDS011;6611;52.604;13.438;2023-08-17T03:24:21;2.77;;;1.70;;
13090;SDS011;6611;52.604;13.438;2023-08-17T03:29:23;2.60;;;2.20;;
13090;SDS011;6611;52.604;13.438;2023-08-17T03:34:26;1.90;;;1.50;;
13090;SDS011;6611;52.604;13.438;2023-08-17T03:39:29;2.30;;;1.60;;
13090;SDS011;6611;52.604;13.438;2023-08-17T03:44:31;2.10;;;1.50;;
13090;SDS011;6611;52.604;13.438;2023-08-17T03:49:32;2.03;;;1.43;;
13090;SDS011;6611;52.604;13.438;2023-08-17T03:54:35;2.73;;;1.60;;
13090;SDS011;6611;52.604;13.438;2023-08-17T03:59:37;1.93;;;1.50;;
13090;SDS011;6611;52.604;13.438;2023-08-17T04:04:39;2.80;;;1.67;;
13090;SDS011;6611;52.604;13.438;2023-08-17T04:09:44;2.13;;;1.60;;
13090;SDS011;6611;52.604;13.438;2023-08-17T04:14:46;2.53;;;1.47;;
13090;SDS011;6611;52.604;13.438;2023-08-17T04:19:47;2.83;;;1.63;;
13090;SDS011;6611;52.604;13.438;2023-08-17T04:24:51;2.23;;;1.63;;
13090;SDS011;6611;52.604;13.438;2023-08-17T04:29:52;2.83;;;2.00;;
13090;SDS011;6611;52.604;13.438;2023-08-17T04:34:54;2.10;;;1.63;;
13090;SDS011;6611;52.604;13.438;2023-08-17T04:39:57;2.53;;;1.77;;
13090;SDS011;6611;52.604;13.438;2023-08-17T04:44:58;2.10;;;1.70;;
13090;SDS011;6611;52.604;13.438;2023-08-17T04:50:00;3.73;;;2.20;;
13090;SDS011;6611;52.604;13.438;2023-08-17T04:55:03;2.10;;;1.60;;
13090;SDS011;6611;52.604;13.438;2023-08-17T05:00:06;3.20;;;1.60;;
13090;SDS011;6611;52.604;13.438;2023-08-17T05:05:09;2.37;;;1.93;;
13090;SDS011;6611;52.604;13.438;2023-08-17T05:10:13;3.30;;;1.60;;
13090;SDS011;6611;52.604;13.438;2023-08-17T05:15:14;1.97;;;1.70;;
13090;SDS011;6611;52.604;13.438;2023-08-17T05:20:16;2.47;;;1.60;;
13090;SDS011;6611;52.604;13.438;2023-08-17T05:25:20;1.63;;;1.50;;
13090;SDS011;6611;52.604;13.438;2023-08-17T05:30:22;3.67;;;1.93;;
13090;SDS011;6611;52.604;13.438;2023-08-17T05:35:24;2.23;;;1.33;;
13090;SDS011;6611;52.604;13.438;2023-08-17T05:40:27;4.03;;;1.53;;
13090;SDS011;6611;52.604;13.438;2023-08-17T05:45:30;3.50;;;1.50;;
13090;SDS011;6611;52.604;13.438;2023-08-17T05:50:32;2.13;;;1.57;;
13090;SDS011;6611;52.604;13.438;2023-08-17T05:55:36;2.93;;;1.53;;
13090;SDS011;6611;52.604;13.438;2023-08-17T06:00:37;4.10;;;2.10;;
13090;SDS011;6611;52.604;13.438;2023-08-17T06:05:39;2.27;;;1.40;;
13090;SDS011;6611;52.604;13.438;2023-08-17T06:10:42;2.63;;;1.40;;
13090;SDS011;6611;52.604;13.438;2023-08-17T06:15:44;2.53;;;1.70;;
13090;SDS011;6611;52.604;13.438;2023-08-17T06:20:46;1.83;;;1.50;;
13090;SDS011;6611;52.604;13.438;2023-08-17T06:25:55;1.20;;;1.10;;
13090;SDS011;6611;52.604;13.438;2023-08-17T06:30:57;2.13;;;1.40;;
13090;SDS011;6611;52.604;13.438;2023-08-17T06:35:59;1.80;;;1.50;;
13090;SDS011;6611;52.604;13.438;2023-08-17T06:41:02;1.60;;;1.43;;
13090;SDS011;6611;52.604;13.438;2023-08-17T06:46:03;1.90;;;1.40;;
13090;SDS011;6611;52.604;13.438;2023-08-17T06:51:05;2.80;;;1.47;;
13090;SDS011;6611;52.604;13.438;2023-08-17T06:56:10;2.57;;;1.90;;
13090;SDS011;6611;52.604;13.438;2023-08-17T07:01:11;4.00;;;1.80;;
13090;SDS011;6611;52.604;13.438;2023-08-17T07:06:14;3.90;;;1.70;;
13090;SDS011;6611;52.604;13.438;2023-08-17T07:11:17;2.67;;;1.70;;
13090;SDS011;6611;52.604;13.438;2023-08-17T07:16:19;5.70;;;1.87;;
13090;SDS011;6611;52.604;13.438;2023-08-17T07:21:21;1.90;;;1.70;;
13090;SDS011;6611;52.604;13.438;2023-08-17T07:26:24;1.57;;;1.20;;
13090;SDS011;6611;52.604;13.438;2023-08-17T07:31:25;2.73;;;1.67;;
13090;SDS011;6611;52.604;13.438;2023-08-17T07:36:27;4.13;;;1.40;;
13090;SDS011;6611;52.604;13.438;2023-08-17T07:41:30;1.87;;;1.60;;
13090;SDS011;6611;52.604;13.438;2023-08-17T07:46:31;1.43;;;1.30;;
13090;SDS011;6611;52.604;13.438;2023-08-17T07:51:33;5.57;;;1.77;;
13090;SDS011;6611;52.604;13.438;2023-08-17T07:56:36;1.70;;;1.30;;
13090;SDS011;6611;52.604;13.438;2023-08-17T08:01:38;2.90;;;1.67;;
13090;SDS011;6611;52.604;13.438;2023-08-17T08:06:40;4.87;;;2.30;;
13090;SDS011;6611;52.604;13.438;2023-08-17T08:11:43;3.53;;;1.98;;
13090;SDS011;6611;52.604;13.438;2023-08-17T08:16:44;3.07;;;1.67;;
13090;SDS011;6611;52.604;13.438;2023-08-17T08:21:47;4.00;;;1.88;;
13090;SDS011;6611;52.604;13.438;2023-08-17T08:26:50;5.05;;;2.25;;
13090;SDS011;6611;52.604;13.438;2023-08-17T08:31:53;3.63;;;1.90;;
13090;SDS011;6611;52.604;13.438;2023-08-17T08:36:54;2.60;;;2.17;;
13090;SDS011;6611;52.604;13.438;2023-08-17T08:41:58;2.40;;;1.75;;
13090;SDS011;6611;52.604;13.438;2023-08-17T08:46:59;2.63;;;2.22;;
13090;SDS011;6611;52.604;13.438;2023-08-17T08:52:02;2.75;;;2.20;;
13090;SDS011;6611;52.604;13.438;2023-08-17T08:57:08;2.80;;;1.95;;
13090;SDS011;6611;52.604;13.438;2023-08-17T09:02:14;2.22;;;2.00;;
13090;SDS011;6611;52.604;13.438;2023-08-17T09:07:17;3.28;;;1.95;;
13090;SDS011;6611;52.604;13.438;2023-08-17T09:12:21;2.85;;;2.08;;
13090;SDS011;6611;52.604;13.438;2023-08-17T09:17:23;4.47;;;2.00;;
13090;SDS011;6611;52.604;13.438;2023-08-17T09:22:26;2.95;;;2.45;;
13090;SDS011;6611;52.604;13.438;2023-08-17T09:27:39;2.47;;;2.13;;
13090;SDS011;6611;52.604;13.438;2023-08-17T09:32:41;3.43;;;2.10;;
13090;SDS011;6611;52.604;13.438;2023-08-17T09:37:43;3.53;;;2.20;;
13090;SDS011;6611;52.604;13.438;2023-08-17T09:42:46;4.85;;;2.50;;
13090;SDS011;6611;52.604;13.438;2023-08-17T09:47:48;4.13;;;2.55;;
13090;SDS011;6611;52.604;13.438;2023-08-17T09:52:52;3.25;;;2.47;;
13090;SDS011;6611;52.604;13.438;2023-08-17T09:57:55;2.83;;;2.50;;
13090;SDS011;6611;52.604;13.438;2023-08-17T10:02:58;2.43;;;2.20;;
13090;SDS011;6611;52.604;13.438;2023-08-17T10:08:03;2.60;;;2.40;;
13090;SDS011;6611;52.604;13.438;2023-08-17T10:13:10;3.55;;;2.67;;
13090;SDS011;6611;52.604;13.438;2023-08-17T10:18:15;2.63;;;2.42;;
13090;SDS011;6611;52.604;13.438;2023-08-17T10:23:23;2.83;;;2.47;;
13090;SDS011;6611;52.604;13.438;2023-08-17T10:28:27;4.13;;;2.50;;
13090;SDS011;6611;52.604;13.438;2023-08-17T10:33:29;2.67;;;2.25;;
13090;SDS011;6611;52.604;13.438;2023-08-17T10:38:31;2.55;;;2.20;;
13090;SDS011;6611;52.604;13.438;2023-08-17T10:43:34;3.50;;;2.70;;
13090;SDS011;6611;52.604;13.438;2023-08-17T10:48:35;3.67;;;2.80;;
13090;SDS011;6611;52.604;13.438;2023-08-17T10:53:37;3.33;;;2.33;;
13090;SDS011;6611;52.604;13.438;2023-08-17T10:58:44;2.47;;;2.28;;
13090;SDS011;6611;52.604;13.438;2023-08-17T11:03:46;2.97;;;2.30;;
13090;SDS011;6611;52.604;13.438;2023-08-17T11:08:51;3.28;;;2.97;;
13090;SDS011;6611;52.604;13.438;2023-08-17T11:13:56;2.70;;;2.45;;
13090;SDS011;6611;52.604;13.438;2023-08-17T11:18:59;4.05;;;2.50;;
13090;SDS011;6611;52.604;13.438;2023-08-17T11:24:01;2.65;;;2.45;;
13090;SDS011;6611;52.604;13.438;2023-08-17T11:29:10;4.43;;;2.30;;
13090;SDS011;6611;52.604;13.438;2023-08-17T11:34:14;3.53;;;2.88;;
13090;SDS011;6611;52.604;13.438;2023-08-17T11:39:17;3.70;;;2.45;;
13090;SDS011;6611;52.604;13.438;2023-08-17T11:44:26;3.42;;;2.83;;
13090;SDS011;6611;52.604;13.438;2023-08-17T11:49:30;3.60;;;2.95;;
13090;SDS011;6611;52.604;13.438;2023-08-17T11:54:32;3.33;;;2.85;;
13090;SDS011;6611;52.604;13.438;2023-08-17T11:59:35;2.95;;;2.70;;
13090;SDS011;6611;52.604;13.438;2023-08-17T12:04:37;4.07;;;3.38;;
13090;SDS011;6611;52.604;13.438;2023-08-17T12:09:38;3.22;;;2.90;;
13090;SDS011;6611;52.604;13.438;2023-08-17T12:14:42;3.72;;;3.40;;
13090;SDS011;6611;52.604;13.438;2023-08-17T12:19:44;4.47;;;3.28;;
13090;SDS011;6611;52.604;13.438;2023-08-17T12:24:49;3.50;;;3.20;;
13090;SDS011;6611;52.604;13.438;2023-08-17T12:29:52;5.22;;;3.45;;
13090;SDS011;6611;52.604;13.438;2023-08-17T12:34:54;4.40;;;3.13;;
13090;SDS011;6611;52.604;13.438;2023-08-17T12:39:56;3.75;;;3.45;;
13090;SDS011;6611;52.604;13.438;2023-08-17T12:44:59;4.32;;;3.33;;
13090;SDS011;6611;52.604;13.438;2023-08-17T12:50:00;4.43;;;3.30;;
13090;SDS011;6611;52.604;13.438;2023-08-17T12:55:03;4.90;;;3.53;;
13090;SDS011;6611;52.604;13.438;2023-08-17T13:00:08;4.22;;;3.40;;
13090;SDS011;6611;52.604;13.438;2023-08-17T13:05:10;4.80;;;3.72;;
13090;SDS011;6611;52.604;13.438;2023-08-17T13:10:11;4.43;;;3.53;;
13090;SDS011;6611;52.604;13.438;2023-08-17T13:15:14;3.95;;;3.63;;
13090;SDS011;6611;52.604;13.438;2023-08-17T13:20:16;3.97;;;3.50;;
13090;SDS011;6611;52.604;13.438;2023-08-17T13:25:18;3.83;;;3.50;;
13090;SDS011;6611;52.604;13.438;2023-08-17T13:30:21;3.83;;;3.50;;
13090;SDS011;6611;52.604;13.438;2023-08-17T13:35:23;3.22;;;3.00;;
13090;SDS011;6611;52.604;13.438;2023-08-17T13:40:24;3.33;;;3.03;;
13090;SDS011;6611;52.604;13.438;2023-08-17T13:45:27;3.40;;;3.15;;
13090;SDS011;6611;52.604;13.438;2023-08-17T13:50:29;4.10;;;3.22;;
13090;SDS011;6611;52.604;13.438;2023-08-17T13:55:30;3.20;;;2.90;;
13090;SDS011;6611;52.604;13.438;2023-08-17T14:00:34;3.63;;;3.33;;
13090;SDS011;6611;52.604;13.438;2023-08-17T14:05:35;3.63;;;3.20;;
13090;SDS011;6611;52.604;13.438;2023-08-17T14:10:37;3.50;;;3.20;;
13090;SDS011;6611;52.604;13.438;2023-08-17T14:15:40;3.63;;;3.28;;
13090;SDS011;6611;52.604;13.438;2023-08-17T14:20:42;3.65;;;3.33;;
13090;SDS011;6611;52.604;13.438;2023-08-17T14:25:43;4.13;;;3.63;;
13090;SDS011;6611;52.604;13.438;2023-08-17T14:30:46;4.10;;;3.08;;
13090;SDS011;6611;52.604;13.438;2023-08-17T14:35:48;3.83;;;3.05;;
13090;SDS011;6611;52.604;13.438;2023-08-17T14:40:50;3.78;;;3.42;;
13090;SDS011;6611;52.604;13.438;2023-08-17T14:45:53;3.85;;;3.55;;
13090;SDS011;6611;52.604;13.438;2023-08-17T14:50:55;3.35;;;3.05;;
13090;SDS011;6611;52.604;13.438;2023-08-17T14:55:57;2.95;;;2.75;;
13090;SDS011;6611;52.604;13.438;2023-08-17T15:01:00;3.08;;;2.80;;
13090;SDS011;6611;52.604;13.438;2023-08-17T15:06:02;2.92;;;2.72;;
13090;SDS011;6611;52.604;13.438;2023-08-17T15:11:04;3.05;;;2.78;;
13090;SDS011;6611;52.604;13.438;2023-08-17T15:16:06;2.92;;;2.65;;
13090;SDS011;6611;52.604;13.438;2023-08-17T15:21:08;3.42;;;2.95;;
13090;SDS011;6611;52.604;13.438;2023-08-17T15:26:10;3.20;;;2.90;;
13090;SDS011;6611;52.604;13.438;2023-08-17T15:31:13;3.10;;;2.80;;
13090;SDS011;6611;52.604;13.438;2023-08-17T15:36:16;4.05;;;3.00;;
13090;SDS011;6611;52.604;13.438;2023-08-17T15:41:21;3.30;;;3.00;;
13090;SDS011;6611;52.604;13.438;2023-08-17T15:46:24;3.03;;;2.75;;
13090;SDS011;6611;52.604;13.438;2023-08-17T15:51:26;3.38;;;3.10;;
13090;SDS011;6611;52.604;13.438;2023-08-17T15:56:28;3.20;;;2.90;;
13090;SDS011;6611;52.604;13.438;2023-08-17T16:01:31;3.15;;;2.85;;
13090;SDS011;6611;52.604;13.438;2023-08-17T16:06:32;3.60;;;2.80;;
13090;SDS011;6611;52.604;13.438;2023-08-17T16:11:34;3.58;;;2.90;;
13090;SDS011;6611;52.604;13.438;2023-08-17T16:16:37;2.92;;;2.72;;
13090;SDS011;6611;52.604;13.438;2023-08-17T16:21:39;3.47;;;3.17;;
13090;SDS011;6611;52.604;13.438;2023-08-17T16:26:40;3.88;;;3.47;;
13090;SDS011;6611;52.604;13.438;2023-08-17T16:31:43;3.60;;;3.17;;
13090;SDS011;6611;52.604;13.438;2023-08-17T16:36:45;3.53;;;3.22;;
13090;SDS011;6611;52.604;13.438;2023-08-17T16:41:46;3.65;;;3.30;;
13090;SDS011;6611;52.604;13.438;2023-08-17T16:46:50;3.95;;;3.55;;
13090;SDS011;6611;52.604;13.438;2023-08-17T16:51:51;5.25;;;3.33;;
13090;SDS011;6611;52.604;13.438;2023-08-17T16:56:53;3.88;;;3.28;;
13090;SDS011;6611;52.604;13.438;2023-08-17T17:01:56;3.88;;;3.25;;
13090;SDS011;6611;52.604;13.438;2023-08-17T17:06:58;3.90;;;3.60;;
13090;SDS011;6611;52.604;13.438;2023-08-17T17:12:00;4.68;;;4.25;;
13090;SDS011;6611;52.604;13.438;2023-08-17T17:17:04;4.05;;;3.65;;
13090;SDS011;6611;52.604;13.438;2023-08-17T17:22:05;4.30;;;3.90;;
13090;SDS011;6611;52.604;13.438;2023-08-17T17:27:07;3.38;;;3.05;;
13090;SDS011;6611;52.604;13.438;2023-08-17T17:32:10;3.38;;;3.08;;
13090;SDS011;6611;52.604;13.438;2023-08-17T17:37:12;3.55;;;3.25;;
13090;SDS011;6611;52.604;13.438;2023-08-17T17:42:13;4.13;;;3.72;;
13090;SDS011;6611;52.604;13.438;2023-08-17T17:47:16;4.38;;;3.70;;
13090;SDS011;6611;52.604;13.438;2023-08-17T17:52:18;4.07;;;3.63;;
13090;SDS011;6611;52.604;13.438;2023-08-17T17:57:20;3.38;;;2.78;;
13090;SDS011;6611;52.604;13.438;2023-08-17T18:02:24;3.28;;;2.92;;
13090;SDS011;6611;52.604;13.438;2023-08-17T18:07:27;4.40;;;3.05;;
13090;SDS011;6611;52.604;13.438;2023-08-17T18:12:29;2.72;;;2.50;;
13090;SDS011;6611;52.604;13.438;2023-08-17T18:17:33;2.47;;;2.28;;
13090;SDS011;6611;52.604;13.438;2023-08-17T18:22:35;3.45;;;2.58;;
13090;SDS011;6611;52.604;13.438;2023-08-17T18:27:37;2.53;;;2.28;;
13090;SDS011;6611;52.604;13.438;2023-08-17T18:32:41;3.63;;;2.38;;
13090;SDS011;6611;52.604;13.438;2023-08-17T18:37:43;3.55;;;2.30;;
13090;SDS011;6611;52.604;13.438;2023-08-17T18:42:45;4.43;;;2.27;;
13090;SDS011;6611;52.604;13.438;2023-08-17T18:47:48;2.67;;;2.37;;
13090;SDS011;6611;52.604;13.438;2023-08-17T18:52:50;2.77;;;2.47;;
13090;SDS011;6611;52.604;13.438;2023-08-17T18:57:52;2.50;;;2.23;;
13090;SDS011;6611;52.604;13.438;2023-08-17T19:02:56;2.93;;;2.00;;
13090;SDS011;6611;52.604;13.438;2023-08-17T19:07:58;3.33;;;2.13;;
13090;SDS011;6611;52.604;13.438;2023-08-17T19:13:00;4.37;;;2.20;;
13090;SDS011;6611;52.604;13.438;2023-08-17T19:18:04;2.90;;;2.10;;
13090;SDS011;6611;52.604;13.438;2023-08-17T19:23:06;4.10;;;2.67;;
13090;SDS011;6611;52.604;13.438;2023-08-17T19:28:07;3.67;;;2.43;;
13090;SDS011;6611;52.604;13.438;2023-08-17T19:33:10;2.53;;;2.10;;
13090;SDS011;6611;52.604;13.438;2023-08-17T19:38:12;2.73;;;2.13;;
13090;SDS011;6611;52.604;13.438;2023-08-17T19:43:15;2.53;;;1.77;;
13090;SDS011;6611;52.604;13.438;2023-08-17T19:48:18;4.37;;;2.00;;
13090;SDS011;6611;52.604;13.438;2023-08-17T19:53:20;2.17;;;1.77;;
13090;SDS011;6611;52.604;13.438;2023-08-17T19:58:21;3.60;;;2.20;;
13090;SDS011;6611;52.604;13.438;2023-08-17T20:03:24;2.53;;;2.30;;
13090;SDS011;6611;52.604;13.438;2023-08-17T20:08:26;5.07;;;2.40;;
13090;SDS011;6611;52.604;13.438;2023-08-17T20:13:27;2.83;;;2.13;;
13090;SDS011;6611;52.604;13.438;2023-08-17T20:18:30;3.77;;;2.13;;
13090;SDS011;6611;52.604;13.438;2023-08-17T20:23:32;2.13;;;1.73;;
13090;SDS011;6611;52.604;13.438;2023-08-17T20:28:34;3.70;;;2.13;;
13090;SDS011;6611;52.604;13.438;2023-08-17T20:33:37;3.00;;;2.30;;
13090;SDS011;6611;52.604;13.438;2023-08-17T20:38:41;2.93;;;2.10;;
13090;SDS011;6611;52.604;13.438;2023-08-17T20:43:43;2.47;;;2.27;;
13090;SDS011;6611;52.604;13.438;2023-08-17T20:48:46;2.63;;;2.07;;
13090;SDS011;6611;52.604;13.438;2023-08-17T20:53:49;2.93;;;2.53;;
13090;SDS011;6611;52.604;13.438;2023-08-17T20:58:52;3.27;;;2.30;;
13090;SDS011;6611;52.604;13.438;2023-08-17T21:03:55;3.83;;;2.77;;
13090;SDS011;6611;52.604;13.438;2023-08-17T21:08:57;2.93;;;2.27;;
13090;SDS011;6611;52.604;13.438;2023-08-17T21:13:59;3.57;;;2.33;;
13090;SDS011;6611;52.604;13.438;2023-08-17T21:19:02;2.40;;;1.97;;
13090;SDS011;6611;52.604;13.438;2023-08-17T21:24:04;3.73;;;2.50;;
13090;SDS011;6611;52.604;13.438;2023-08-17T21:29:06;2.30;;;2.10;;
13090;SDS011;6611;52.604;13.438;2023-08-17T21:34:09;2.20;;;2.00;;
13090;SDS011;6611;52.604;13.438;2023-08-17T21:39:11;2.07;;;1.70;;
13090;SDS011;6611;52.604;13.438;2023-08-17T21:44:14;2.20;;;1.77;;
13090;SDS011;6611;52.604;13.438;2023-08-17T21:49:17;3.00;;;2.03;;
13090;SDS011;6611;52.604;13.438;2023-08-17T21:54:18;3.00;;;1.90;;
13090;SDS011;6611;52.604;13.438;2023-08-17T21:59:20;1.70;;;1.60;;
13090;SDS011;6611;52.604;13.438;2023-08-17T22:04:23;2.40;;;2.20;;
13090;SDS011;6611;52.604;13.438;2023-08-17T22:09:25;2.37;;;1.73;;
13090;SDS011;6611;52.604;13.438;2023-08-17T22:14:26;2.93;;;1.83;;
13090;SDS011;6611;52.604;13.438;2023-08-17T22:19:30;2.70;;;1.90;;
13090;SDS011;6611;52.604;13.438;2023-08-17T22:24:32;2.40;;;1.83;;
13090;SDS011;6611;52.604;13.438;2023-08-17T22:29:34;3.37;;;2.20;;
13090;SDS011;6611;52.604;13.438;2023-08-17T22:34:37;2.77;;;1.93;;
13090;SDS011;6611;52.604;13.438;2023-08-17T22:39:39;2.73;;;2.10;;
13090;SDS011;6611;52.604;13.438;2023-08-17T22:44:41;3.97;;;2.00;;
13090;SDS011;6611;52.604;13.438;2023-08-17T22:49:44;2.77;;;2.17;;
13090;SDS011;6611;52.604;13.438;2023-08-17T22:54:47;4.33;;;2.30;;
13090;SDS011;6611;52.604;13.438;2023-08-17T22:59:48;3.70;;;2.40;;
13090;SDS011;6611;52.604;13.438;2023-08-17T23:04:51;3.40;;;2.53;;
13090;SDS011;6611;52.604;13.438;2023-08-17T23:09:53;3.20;;;2.40;;
13090;SDS011;6611;52.604;13.438;2023-08-17T23:14:55;3.30;;;2.20;;
13090;SDS011;6611;52.604;13.438;2023-08-17T23:19:58;3.97;;;2.30;;
13090;SDS011;6611;52.604;13.438;2023-08-17T23:24:59;3.10;;;2.63;;
13090;SDS011;6611;52.604;13.438;2023-08-17T23:30:01;3.83;;;2.70;;
13090;SDS011;6611;52.604;13.438;2023-08-17T23:35:05;2.90;;;2.50;;
13090;SDS011;6611;52.604;13.438;2023-08-17T23:40:07;3.93;;;2.50;;
13090;SDS011;6611;52.604;13.438;2023-08-17T23:45:09;5.77;;;2.97;;
13090;SDS011;6611;52.604;13.438;2023-08-17T23:50:12;4.73;;;2.67;;
13090;SDS011;6611;52.604;13.438;2023-08-17T23:55:14;4.87;;;3.50;;
